createdAt,value
2018-10-18T00:01:55.398Z,10.67
2018-10-18T00:04:23.655Z,10.74
2018-10-18T00:06:51.971Z,10.71
2018-10-18T00:09:20.236Z,10.77
2018-10-18T00:11:48.512Z,10.75
2018-10-18T00:14:16.983Z,10.58
2018-10-18T00:16:45.137Z,10.74
2018-10-18T00:19:13.424Z,10.68
2018-10-18T00:21:41.731Z,10.73
2018-10-18T00:24:10.067Z,10.62
2018-10-18T00:26:38.283Z,10.52
2018-10-18T00:29:06.547Z,10.65
2018-10-18T00:31:34.831Z,10.57
2018-10-18T00:34:03.095Z,10.58
2018-10-18T00:36:31.406Z,10.50
2018-10-18T00:39:00.395Z,10.41
2018-10-18T00:41:28.682Z,10.40
2018-10-18T00:43:56.981Z,10.38
2018-10-18T00:46:25.276Z,10.52
2018-10-18T00:48:53.548Z,10.45
2018-10-18T00:51:21.963Z,10.50
2018-10-18T00:53:50.239Z,10.42
2018-10-18T00:56:18.500Z,10.46
2018-10-18T00:58:46.785Z,10.48
2018-10-18T01:01:15.043Z,10.48
2018-10-18T01:03:43.680Z,10.34
2018-10-18T01:06:12.059Z,10.34
2018-10-18T01:08:40.891Z,10.39
2018-10-18T01:11:09.170Z,10.39
2018-10-18T01:13:37.611Z,10.35
2018-10-18T01:16:06.079Z,10.37
2018-10-18T01:18:34.368Z,10.36
2018-10-18T01:21:02.651Z,10.34
2018-10-18T01:23:30.940Z,10.33
2018-10-18T01:25:59.570Z,10.25
2018-10-18T01:28:27.815Z,10.24
2018-10-18T01:30:56.087Z,10.22
2018-10-18T01:33:24.379Z,10.27
2018-10-18T01:35:52.672Z,10.27
2018-10-18T01:38:20.991Z,10.18
2018-10-18T01:40:49.275Z,10.29
2018-10-18T01:43:17.723Z,10.28
2018-10-18T01:45:45.999Z,10.22
2018-10-18T01:48:14.321Z,10.22
2018-10-18T01:50:42.611Z,10.14
2018-10-18T01:53:10.903Z,10.19
2018-10-18T01:55:39.176Z,10.10
2018-10-18T01:58:07.468Z,10.05
2018-10-18T02:00:36.466Z,10.19
2018-10-18T02:03:04.797Z,10.02
2018-10-18T02:05:33.051Z,10.05
2018-10-18T02:08:01.390Z,10.01
2018-10-18T02:10:29.636Z,10.10
2018-10-18T02:12:57.921Z,9.94
2018-10-18T02:15:26.215Z,10.02
2018-10-18T02:17:54.534Z,9.98
2018-10-18T02:20:22.794Z,9.93
2018-10-18T02:22:51.063Z,9.91
2018-10-18T02:25:19.443Z,9.82
2018-10-18T02:27:47.635Z,9.75
2018-10-18T02:30:16.062Z,9.94
2018-10-18T02:32:44.201Z,10.01
2018-10-18T02:35:12.702Z,9.92
2018-10-18T02:37:41.369Z,9.96
2018-10-18T02:40:09.707Z,9.89
2018-10-18T02:42:37.978Z,9.73
2018-10-18T02:45:06.318Z,9.60
2018-10-18T02:47:34.593Z,9.68
2018-10-18T02:50:02.876Z,9.72
2018-10-18T02:52:34.138Z,9.70
2018-10-18T02:55:02.435Z,9.62
2018-10-18T02:57:30.707Z,9.66
2018-10-18T02:59:58.994Z,9.60
2018-10-18T03:02:27.282Z,9.52
2018-10-18T03:04:55.563Z,9.61
2018-10-18T03:07:23.839Z,9.58
2018-10-18T03:09:52.125Z,9.56
2018-10-18T03:12:20.472Z,9.45
2018-10-18T03:14:48.694Z,9.62
2018-10-18T03:17:16.960Z,9.69
2018-10-18T03:19:45.428Z,9.77
2018-10-18T03:22:13.679Z,9.70
2018-10-18T03:24:41.972Z,9.86
2018-10-18T03:27:10.244Z,9.94
2018-10-18T03:29:38.544Z,10.09
2018-10-18T03:32:06.827Z,10.20
2018-10-18T03:34:35.104Z,10.32
2018-10-18T03:37:03.389Z,10.44
2018-10-18T03:39:31.671Z,10.65
2018-10-18T03:41:59.952Z,10.70
2018-10-18T03:44:28.681Z,10.77
2018-10-18T03:46:56.952Z,10.76
2018-10-18T03:49:25.293Z,10.81
2018-10-18T03:51:53.576Z,10.86
2018-10-18T03:54:21.844Z,10.90
2018-10-18T03:56:50.123Z,11.06
2018-10-18T03:59:18.408Z,11.02
2018-10-18T04:01:46.684Z,11.00
2018-10-18T04:04:14.960Z,11.00
2018-10-18T04:06:43.240Z,11.16
2018-10-18T04:09:11.515Z,11.24
2018-10-18T04:11:40.783Z,11.41
2018-10-18T04:14:09.159Z,11.48
2018-10-18T04:16:37.460Z,11.53
2018-10-18T04:19:06.052Z,11.65
2018-10-18T04:21:34.333Z,11.72
2018-10-18T04:24:02.681Z,11.89
2018-10-18T04:26:30.894Z,12.00
2018-10-18T04:28:59.181Z,12.28
2018-10-18T04:31:28.182Z,12.18
2018-10-18T04:33:56.451Z,12.26
2018-10-18T04:36:24.752Z,12.46
2018-10-18T04:38:53.040Z,12.62
2018-10-18T04:41:21.355Z,12.47
2018-10-18T04:43:49.639Z,12.53
2018-10-18T04:46:17.943Z,12.56
2018-10-18T04:48:46.214Z,12.55
2018-10-18T04:51:14.536Z,12.66
2018-10-18T04:53:42.806Z,12.67
2018-10-18T04:56:11.112Z,12.64
2018-10-18T04:58:39.402Z,12.69
2018-10-18T05:01:07.768Z,12.69
2018-10-18T05:03:36.008Z,12.81
2018-10-18T05:06:05.687Z,12.77
2018-10-18T05:08:33.951Z,12.74
2018-10-18T05:11:02.227Z,12.78
2018-10-18T05:13:30.519Z,12.86
2018-10-18T05:15:58.807Z,12.69
2018-10-18T05:18:27.133Z,12.64
2018-10-18T05:20:55.407Z,12.70
2018-10-18T05:23:23.699Z,12.81
2018-10-18T05:25:52.155Z,12.72
2018-10-18T05:28:20.742Z,12.68
2018-10-18T05:30:49.462Z,12.68
2018-10-18T05:33:17.758Z,12.74
2018-10-18T05:35:46.024Z,12.63
2018-10-18T05:38:14.879Z,12.72
2018-10-18T05:40:43.157Z,12.77
2018-10-18T05:43:11.538Z,12.78
2018-10-18T05:45:39.760Z,12.71
2018-10-18T05:48:08.191Z,12.75
2018-10-18T05:50:36.824Z,12.74
2018-10-18T05:53:05.782Z,12.77
2018-10-18T05:55:36.736Z,12.84
2018-10-18T05:58:05.054Z,12.77
2018-10-18T06:00:33.343Z,12.75
2018-10-18T06:03:01.628Z,12.68
2018-10-18T06:05:29.880Z,12.59
2018-10-18T06:07:58.259Z,12.72
2018-10-18T06:10:37.875Z,12.67
2018-10-18T06:13:06.139Z,12.70
2018-10-18T06:15:34.403Z,12.72
2018-10-18T06:18:02.720Z,12.81
2018-10-18T06:20:30.983Z,12.82
2018-10-18T06:22:59.429Z,12.78
2018-10-18T06:25:27.579Z,12.89
2018-10-18T06:27:55.874Z,12.90
2018-10-18T06:30:24.373Z,12.89
2018-10-18T06:32:52.724Z,12.81
2018-10-18T06:35:20.963Z,12.77
2018-10-18T06:37:49.255Z,12.86
2018-10-18T06:40:18.269Z,12.84
2018-10-18T06:42:46.739Z,13.00
2018-10-18T06:45:16.643Z,13.17
2018-10-18T06:47:45.267Z,13.07
2018-10-18T06:50:15.786Z,13.02
2018-10-18T06:52:44.098Z,13.14
2018-10-18T06:55:12.570Z,12.93
2018-10-18T06:57:41.764Z,13.01
2018-10-18T07:00:16.093Z,13.06
2018-10-18T07:02:44.803Z,13.18
2018-10-18T07:05:14.184Z,13.20
2018-10-18T07:07:42.935Z,13.19
2018-10-18T07:10:11.224Z,13.18
2018-10-18T07:12:39.991Z,13.17
2018-10-18T07:15:09.255Z,13.20
2018-10-18T07:17:38.479Z,13.12
2018-10-18T07:20:07.434Z,13.16
2018-10-18T07:22:36.199Z,13.24
2018-10-18T07:25:05.215Z,13.24
2018-10-18T07:27:33.503Z,13.24
2018-10-18T07:30:01.814Z,13.21
2018-10-18T07:32:30.089Z,13.13
2018-10-18T07:34:58.409Z,13.08
2018-10-18T07:37:26.699Z,13.21
2018-10-18T07:39:55.016Z,13.24
2018-10-18T07:42:23.335Z,13.21
2018-10-18T07:44:51.615Z,13.18
2018-10-18T07:47:20.059Z,13.16
2018-10-18T07:49:48.868Z,13.24
2018-10-18T07:52:17.131Z,13.32
2018-10-18T07:54:45.464Z,13.21
2018-10-18T07:57:13.783Z,13.42
2018-10-18T07:59:42.059Z,13.38
2018-10-18T08:02:10.343Z,13.37
2018-10-18T08:04:38.644Z,13.37
2018-10-18T08:07:06.947Z,13.29
2018-10-18T08:09:35.212Z,13.46
2018-10-18T08:12:03.499Z,13.26
2018-10-18T08:14:31.800Z,13.39
2018-10-18T08:17:00.096Z,13.34
2018-10-18T08:19:28.384Z,13.50
2018-10-18T08:21:56.664Z,13.52
2018-10-18T08:24:24.960Z,13.67
2018-10-18T08:26:53.226Z,13.85
2018-10-18T08:29:21.686Z,13.93
2018-10-18T08:31:50.015Z,14.10
2018-10-18T08:34:18.255Z,13.99
2018-10-18T08:36:46.523Z,14.14
2018-10-18T08:39:14.827Z,14.08
2018-10-18T08:41:44.171Z,13.98
2018-10-18T08:44:12.505Z,14.06
2018-10-18T08:46:40.767Z,13.74
2018-10-18T08:49:09.633Z,13.71
2018-10-18T08:51:37.828Z,13.73
2018-10-18T08:54:06.180Z,13.96
2018-10-18T08:56:34.519Z,14.06
2018-10-18T08:59:02.808Z,14.18
2018-10-18T09:01:31.111Z,14.11
2018-10-18T09:03:59.379Z,13.80
2018-10-18T09:06:27.848Z,14.00
2018-10-18T09:08:56.136Z,14.01
2018-10-18T09:11:24.439Z,14.34
2018-10-18T09:13:52.720Z,14.28
2018-10-18T09:16:21.035Z,14.22
2018-10-18T09:18:49.311Z,14.43
2018-10-18T09:21:17.601Z,14.49
2018-10-18T09:23:46.247Z,14.65
2018-10-18T09:26:14.542Z,14.50
2018-10-18T09:28:42.824Z,14.97
2018-10-18T09:31:11.202Z,14.94
2018-10-18T09:33:39.419Z,15.22
2018-10-18T09:36:07.696Z,15.61
2018-10-18T09:38:35.971Z,15.54
2018-10-18T09:41:04.290Z,15.53
2018-10-18T09:43:32.555Z,15.59
2018-10-18T09:46:00.855Z,15.74
2018-10-18T09:48:29.495Z,15.34
2018-10-18T09:50:57.790Z,15.40
2018-10-18T09:53:26.378Z,15.90
2018-10-18T09:55:54.694Z,15.92
2018-10-18T09:58:22.963Z,16.34
2018-10-18T10:00:57.389Z,16.92
2018-10-18T10:03:26.227Z,17.70
2018-10-18T10:05:54.498Z,17.67
2018-10-18T10:08:22.770Z,18.12
2018-10-18T10:10:51.063Z,17.98
2018-10-18T10:13:19.494Z,18.45
2018-10-18T10:15:47.664Z,19.29
2018-10-18T10:18:16.014Z,19.13
2018-10-18T10:20:44.287Z,19.31
2018-10-18T10:23:12.580Z,19.75
2018-10-18T10:25:40.864Z,19.59
2018-10-18T10:28:09.188Z,19.59
2018-10-18T10:30:37.461Z,19.59
2018-10-18T10:33:05.962Z,20.14
2018-10-18T10:35:34.234Z,21.19
2018-10-18T10:38:02.518Z,22.43
2018-10-18T10:40:30.807Z,22.53
2018-10-18T10:42:59.189Z,22.58
2018-10-18T10:45:27.724Z,22.37
2018-10-18T10:47:56.014Z,21.90
2018-10-18T10:50:24.298Z,20.74
2018-10-18T10:52:52.594Z,20.29
2018-10-18T10:55:20.867Z,20.30
2018-10-18T10:57:49.160Z,20.35
2018-10-18T11:00:33.238Z,20.34
2018-10-18T11:03:01.591Z,20.07
2018-10-18T11:05:29.820Z,19.34
2018-10-18T11:07:58.135Z,18.81
2018-10-18T11:10:26.406Z,18.62
2018-10-18T11:12:54.718Z,18.57
2018-10-18T11:15:22.999Z,18.61
2018-10-18T11:17:51.296Z,18.65
2018-10-18T11:20:19.711Z,18.11
2018-10-18T11:22:48.007Z,18.07
2018-10-18T11:25:16.675Z,17.63
2018-10-18T11:27:44.979Z,17.92
2018-10-18T11:30:13.386Z,18.12
2018-10-18T11:32:41.577Z,18.53
2018-10-18T11:35:09.847Z,18.59
2018-10-18T11:37:38.168Z,18.18
2018-10-18T11:40:07.004Z,18.42
2018-10-18T11:42:35.383Z,18.26
2018-10-18T11:45:03.628Z,18.25
2018-10-18T11:47:31.939Z,18.14
2018-10-18T11:50:00.247Z,18.14
2018-10-18T11:52:28.523Z,17.45
2018-10-18T11:54:56.808Z,17.38
2018-10-18T11:57:25.100Z,17.29
2018-10-18T11:59:53.386Z,17.36
2018-10-18T12:02:21.710Z,17.65
2018-10-18T12:04:49.979Z,17.37
2018-10-18T12:07:18.263Z,17.23
2018-10-18T12:09:46.555Z,17.24
2018-10-18T12:12:15.251Z,17.33
2018-10-18T12:14:43.528Z,17.36
2018-10-18T12:17:11.902Z,17.09
2018-10-18T12:19:40.119Z,17.14
2018-10-18T12:22:08.412Z,17.42
2018-10-18T12:24:36.722Z,17.34
2018-10-18T12:27:05.523Z,17.75
2018-10-18T12:29:33.931Z,17.54
2018-10-18T12:32:02.317Z,17.35
2018-10-18T12:34:30.559Z,16.84
2018-10-18T12:36:58.856Z,16.76
2018-10-18T12:39:27.191Z,16.73
2018-10-18T12:41:55.527Z,16.79
2018-10-18T12:44:23.800Z,16.92
2018-10-18T12:46:52.078Z,16.83
2018-10-18T12:49:20.413Z,16.87
2018-10-18T12:51:48.707Z,16.78
2018-10-18T12:54:17.083Z,16.73
2018-10-18T12:56:45.307Z,16.56
2018-10-18T12:59:13.734Z,16.67
2018-10-18T13:01:42.044Z,16.45
2018-10-18T13:04:10.363Z,16.26
2018-10-18T13:06:38.643Z,16.15
2018-10-18T13:09:09.247Z,16.20
2018-10-18T13:11:37.631Z,16.46
2018-10-18T13:14:06.213Z,16.43
2018-10-18T13:16:34.624Z,16.43
2018-10-18T13:19:02.951Z,16.22
2018-10-18T13:21:31.228Z,16.16
2018-10-18T13:23:59.554Z,16.28
2018-10-18T13:26:27.867Z,16.26
2018-10-18T13:28:56.210Z,16.39
2018-10-18T13:31:24.483Z,16.74
2018-10-18T13:33:52.821Z,16.89
2018-10-18T13:36:21.080Z,16.86
2018-10-18T13:38:49.392Z,16.82
2018-10-18T13:41:18.072Z,16.89
2018-10-18T13:43:46.376Z,16.63
2018-10-18T13:46:14.676Z,16.72
2018-10-18T13:48:43.342Z,16.58
2018-10-18T13:51:11.627Z,16.73
2018-10-18T13:53:42.072Z,16.81
2018-10-18T13:56:11.824Z,16.69
2018-10-18T13:58:40.175Z,16.52
2018-10-18T14:01:08.516Z,16.56
2018-10-18T14:03:39.435Z,16.54
2018-10-18T14:06:07.839Z,16.55
2018-10-18T14:08:36.216Z,16.51
2018-10-18T14:11:04.774Z,16.35
2018-10-18T14:13:33.031Z,16.50
2018-10-18T14:16:01.311Z,16.50
2018-10-18T14:18:29.620Z,16.74
2018-10-18T14:20:57.903Z,16.60
2018-10-18T14:23:26.208Z,16.96
2018-10-18T14:25:54.528Z,16.89
2018-10-18T14:28:22.783Z,17.10
2018-10-18T14:30:51.199Z,17.06
2018-10-18T14:33:19.391Z,17.24
2018-10-18T14:35:48.711Z,17.18
2018-10-18T14:38:17.020Z,17.11
2018-10-18T14:40:45.442Z,17.37
2018-10-18T14:43:13.743Z,17.68
2018-10-18T14:45:42.056Z,18.21
2018-10-18T14:48:10.380Z,18.75
2018-10-18T14:50:38.730Z,18.37
2018-10-18T14:53:07.055Z,18.68
2018-10-18T14:55:35.323Z,19.14
2018-10-18T14:58:03.888Z,18.68
2018-10-18T15:00:32.193Z,19.47
2018-10-18T15:03:00.531Z,19.05
2018-10-18T15:05:28.819Z,18.84
2018-10-18T15:07:57.768Z,18.66
2018-10-18T15:10:26.064Z,18.42
2018-10-18T15:12:54.360Z,18.08
2018-10-18T15:15:22.804Z,18.05
2018-10-18T15:17:51.074Z,17.79
2018-10-18T15:20:19.379Z,18.14
2018-10-18T15:22:47.669Z,17.96
2018-10-18T15:25:16.476Z,17.61
2018-10-18T15:27:44.821Z,17.51
2018-10-18T15:30:13.507Z,17.47
2018-10-18T15:32:41.788Z,16.98
2018-10-18T15:35:11.127Z,16.78
2018-10-18T15:37:39.928Z,16.82
2018-10-18T15:40:08.507Z,16.44
2018-10-18T15:42:36.799Z,16.31
2018-10-18T15:45:05.394Z,16.10
2018-10-18T15:47:33.727Z,15.98
2018-10-18T15:50:02.042Z,15.88
2018-10-18T15:52:30.311Z,15.85
2018-10-18T15:54:58.654Z,15.94
2018-10-18T15:57:26.915Z,15.88
2018-10-18T15:59:55.213Z,15.59
2018-10-18T16:02:23.495Z,15.30
2018-10-18T16:04:51.787Z,15.10
2018-10-18T16:07:20.066Z,14.99
2018-10-18T16:09:48.531Z,14.72
2018-10-18T16:12:16.810Z,14.55
2018-10-18T16:14:45.139Z,14.45
2018-10-18T16:17:13.499Z,14.21
2018-10-18T16:19:41.752Z,14.00
2018-10-18T16:22:10.019Z,13.69
2018-10-18T16:24:38.405Z,13.48
2018-10-18T16:27:06.730Z,13.30
2018-10-18T16:29:35.016Z,13.11
2018-10-18T16:32:03.420Z,13.02
2018-10-18T16:34:32.079Z,12.98
2018-10-18T16:37:00.620Z,12.81
2018-10-18T16:39:29.284Z,12.79
2018-10-18T16:41:57.674Z,12.71
2018-10-18T16:44:25.910Z,12.66
2018-10-18T16:46:54.226Z,12.66
2018-10-18T16:49:23.184Z,12.68
2018-10-18T16:51:52.214Z,12.47
2018-10-18T16:54:20.534Z,12.37
2018-10-18T16:56:48.828Z,12.32
2018-10-18T16:59:17.099Z,12.35
2018-10-18T17:01:45.396Z,12.45
2018-10-18T17:04:14.174Z,12.56
2018-10-18T17:06:42.605Z,12.79
2018-10-18T17:09:11.600Z,12.89
2018-10-18T17:11:39.955Z,12.92
2018-10-18T17:14:07.951Z,12.95
2018-10-18T17:16:36.271Z,12.96
2018-10-18T17:19:04.604Z,13.04
2018-10-18T17:21:32.917Z,12.97
2018-10-18T17:24:01.261Z,12.93
2018-10-18T17:26:29.592Z,12.83
2018-10-18T17:28:57.863Z,12.73
2018-10-18T17:31:26.251Z,12.66
2018-10-18T17:33:54.550Z,12.72
2018-10-18T17:36:22.835Z,12.78
2018-10-18T17:38:51.131Z,12.88
2018-10-18T17:41:19.433Z,12.89
2018-10-18T17:43:47.721Z,12.74
2018-10-18T17:46:16.083Z,12.82
2018-10-18T17:48:44.336Z,12.95
2018-10-18T17:51:12.735Z,13.03
2018-10-18T17:53:41.137Z,13.08
2018-10-18T17:56:09.810Z,13.05
2018-10-18T17:58:38.036Z,13.15
2018-10-18T18:01:08.661Z,13.07
2018-10-18T18:03:37.102Z,13.09
2018-10-18T18:06:05.822Z,13.07
2018-10-18T18:08:33.973Z,13.04
2018-10-18T18:11:02.481Z,13.13
2018-10-18T18:13:30.757Z,13.14
2018-10-18T18:15:59.095Z,13.15
2018-10-18T18:18:27.346Z,13.18
2018-10-18T18:20:55.683Z,13.29
2018-10-18T18:23:24.004Z,13.33
2018-10-18T18:25:52.372Z,13.38
2018-10-18T18:28:20.696Z,13.41
2018-10-18T18:30:49.029Z,13.49
2018-10-18T18:33:17.335Z,13.57
2018-10-18T18:35:45.664Z,13.80
2018-10-18T18:38:13.974Z,13.91
2018-10-18T18:40:42.298Z,13.89
2018-10-18T18:43:10.592Z,13.86
2018-10-18T18:45:38.980Z,13.85
2018-10-18T18:48:07.220Z,13.87
2018-10-18T18:50:35.583Z,13.93
2018-10-18T18:53:03.936Z,13.94
2018-10-18T18:55:32.220Z,13.87
2018-10-18T18:58:00.539Z,13.87
2018-10-18T19:00:28.829Z,13.87
2018-10-18T19:02:57.195Z,13.79
2018-10-18T19:05:25.451Z,13.74
2018-10-18T19:07:53.785Z,13.68
2018-10-18T19:10:22.131Z,13.46
2018-10-18T19:12:50.448Z,13.27
2018-10-18T19:15:18.754Z,13.09
2018-10-18T19:17:47.070Z,12.95
2018-10-18T19:20:15.368Z,12.78
2018-10-18T19:22:43.812Z,12.63
2018-10-18T19:25:12.420Z,12.45
2018-10-18T19:27:40.781Z,12.31
2018-10-18T19:30:10.263Z,12.16
2018-10-18T19:32:38.611Z,11.97
2018-10-18T19:35:06.916Z,11.77
2018-10-18T19:37:35.213Z,11.71
2018-10-18T19:40:03.532Z,11.62
2018-10-18T19:42:31.819Z,11.69
2018-10-18T19:45:00.124Z,11.70
2018-10-18T19:47:28.435Z,11.71
2018-10-18T19:49:56.723Z,11.92
2018-10-18T19:52:25.146Z,12.14
2018-10-18T19:54:53.281Z,12.26
2018-10-18T19:57:21.559Z,12.32
2018-10-18T19:59:49.832Z,12.37
2018-10-18T20:02:18.115Z,12.36
2018-10-18T20:04:46.387Z,12.31
2018-10-18T20:07:14.699Z,12.20
2018-10-18T20:09:43.076Z,12.13
2018-10-18T20:12:11.351Z,11.99
2018-10-18T20:14:39.643Z,11.86
2018-10-18T20:17:08.360Z,11.69
2018-10-18T20:19:36.638Z,11.58
2018-10-18T20:22:08.470Z,11.36
2018-10-18T20:24:36.757Z,11.22
2018-10-18T20:27:05.248Z,11.27
2018-10-18T20:29:33.520Z,11.34
2018-10-18T20:32:01.836Z,11.55
2018-10-18T20:34:30.115Z,11.55
2018-10-18T20:36:58.411Z,11.43
2018-10-18T20:39:26.679Z,11.57
2018-10-18T20:41:54.963Z,11.49
2018-10-18T20:44:23.259Z,11.56
2018-10-18T20:46:51.659Z,11.63
2018-10-18T20:49:19.951Z,11.68
2018-10-18T20:51:48.251Z,11.71
2018-10-18T20:54:16.523Z,11.77
2018-10-18T20:56:44.823Z,11.76
2018-10-18T20:59:13.131Z,11.87
2018-10-18T21:01:41.434Z,11.91
2018-10-18T21:04:09.716Z,11.73
2018-10-18T21:06:38.143Z,11.80
2018-10-18T21:09:08.075Z,11.92
2018-10-18T21:11:36.315Z,12.07
2018-10-18T21:14:04.680Z,11.90
2018-10-18T21:16:33.031Z,11.93
2018-10-18T21:19:01.348Z,11.93
2018-10-18T21:21:29.682Z,11.95
2018-10-18T21:23:58.052Z,11.78
2018-10-18T21:26:26.344Z,11.72
2018-10-18T21:28:54.770Z,11.73
2018-10-18T21:31:23.040Z,11.85
2018-10-18T21:33:51.529Z,11.73
2018-10-18T21:36:19.815Z,11.82
2018-10-18T21:38:48.156Z,11.97
2018-10-18T21:41:16.447Z,11.87
2018-10-18T21:43:44.756Z,11.83
2018-10-18T21:46:13.043Z,11.81
2018-10-18T21:48:42.109Z,11.66
2018-10-18T21:51:10.437Z,11.63
2018-10-18T21:53:38.698Z,11.70
2018-10-18T21:56:06.981Z,11.80
2018-10-18T21:58:35.315Z,11.71
2018-10-18T22:01:03.584Z,11.59
2018-10-18T22:03:31.895Z,11.50
2018-10-18T22:06:00.175Z,11.43
2018-10-18T22:08:28.466Z,11.38
2018-10-18T22:10:57.009Z,11.38
2018-10-18T22:13:25.303Z,11.43
2018-10-18T22:15:53.576Z,11.47
2018-10-18T22:18:21.875Z,11.42
2018-10-18T22:20:50.155Z,11.29
2018-10-18T22:23:18.440Z,11.23
2018-10-18T22:25:46.723Z,11.26
2018-10-18T22:28:15.023Z,11.22
2018-10-18T22:30:43.307Z,11.19
2018-10-18T22:33:11.663Z,11.15
2018-10-18T22:35:39.915Z,11.16
2018-10-18T22:38:08.191Z,11.13
2018-10-18T22:40:36.891Z,11.23
2018-10-18T22:43:05.680Z,11.27
2018-10-18T22:45:33.967Z,11.16
2018-10-18T22:48:02.227Z,11.18
2018-10-18T22:50:30.507Z,11.11
2018-10-18T22:52:58.827Z,11.07
2018-10-18T22:55:27.092Z,11.13
2018-10-18T22:57:55.350Z,11.04
2018-10-18T23:00:23.641Z,11.13
2018-10-18T23:02:51.943Z,11.12
2018-10-18T23:05:20.235Z,10.94
2018-10-18T23:07:48.515Z,11.05
2018-10-18T23:10:16.795Z,11.11
2018-10-18T23:12:45.055Z,11.09
2018-10-18T23:15:13.435Z,11.08
2018-10-18T23:17:41.671Z,10.96
2018-10-18T23:20:10.073Z,10.83
2018-10-18T23:22:38.351Z,10.83
2018-10-18T23:25:06.935Z,10.87
2018-10-18T23:27:35.219Z,10.80
2018-10-18T23:30:03.567Z,10.83
2018-10-18T23:32:31.830Z,10.79
2018-10-18T23:35:00.157Z,10.69
2018-10-18T23:37:28.524Z,10.64
2018-10-18T23:39:56.887Z,10.63
2018-10-18T23:42:25.155Z,10.54
2018-10-18T23:44:53.431Z,10.58
2018-10-18T23:47:21.751Z,10.65
2018-10-18T23:49:50.046Z,10.66
2018-10-18T23:52:18.326Z,10.61
2018-10-18T23:54:46.602Z,10.58
2018-10-18T23:57:14.929Z,10.58
2018-10-18T23:59:43.184Z,10.53
